Time;durP1;ratioP1;P1;durP2;ratioP2;P2;SDS_P1;SDS_P2;PMS_P1;PMS_P2;Temp;Humidity;BMP_temperature;BMP_pressure;BME280_temperature;BME280_humidity;BME280_pressure;Samples;Min_cycle;Max_cycle;Signal;HPM_P1;HPM_P2
2022/05/25 00:00:44;;;;;;;6.43;2.17;;;18.70;74.10;;;;;;4979408;28;20205;-76
2022/05/25 00:03:14;;;;;;;3.50;2.23;;;18.70;74.50;;;;;;4988338;28;20211;-75
2022/05/25 00:05:43;;;;;;;3.97;2.27;;;18.60;74.60;;;;;;4994327;28;20198;-76
2022/05/25 00:08:13;;;;;;;3.47;2.10;;;18.60;74.90;;;;;;4984962;28;20197;-76
2022/05/25 00:10:42;;;;;;;5.37;2.60;;;18.60;74.90;;;;;;4999735;28;20648;-76
2022/05/25 00:13:10;;;;;;;4.00;2.00;;;18.50;75.00;;;;;;4988477;28;20201;-77
2022/05/25 00:15:38;;;;;;;4.80;2.20;;;18.50;75.10;;;;;;4986465;28;20200;-76
2022/05/25 00:18:07;;;;;;;5.17;2.10;;;18.50;75.10;;;;;;4988139;28;20200;-76
2022/05/25 00:20:37;;;;;;;3.70;1.97;;;18.40;75.00;;;;;;4990431;28;20213;-76
2022/05/25 00:23:06;;;;;;;4.23;2.00;;;18.40;75.00;;;;;;4994057;28;20231;-75
2022/05/25 00:25:37;;;;;;;2.33;1.80;;;18.30;75.10;;;;;;4987643;28;20774;-76
2022/05/25 00:28:08;;;;;;;4.50;1.93;;;18.40;75.20;;;;;;4989598;28;20194;-76
2022/05/25 00:30:36;;;;;;;3.73;2.30;;;18.40;75.20;;;;;;4987863;28;20197;-76
2022/05/25 00:33:05;;;;;;;3.13;1.67;;;18.30;75.20;;;;;;4985079;28;20201;-76
2022/05/25 00:35:37;;;;;;;4.27;2.03;;;18.30;75.40;;;;;;4993866;28;20193;-76
2022/05/25 00:38:06;;;;;;;5.33;2.23;;;18.20;75.50;;;;;;4992562;28;20203;-76
2022/05/25 00:40:37;;;;;;;3.10;2.03;;;18.30;75.60;;;;;;4985361;28;20686;-75
2022/05/25 00:43:07;;;;;;;5.27;2.10;;;18.20;75.60;;;;;;4990577;28;20200;-76
2022/05/25 00:45:38;;;;;;;5.53;1.83;;;18.20;75.60;;;;;;4980539;28;20231;-76
2022/05/25 00:48:08;;;;;;;3.10;2.10;;;18.20;75.80;;;;;;4989807;28;20257;-76
2022/05/25 00:53:24;;;;;;;5.10;2.67;;;18.10;75.80;;;;;;4979340;28;20201;-76
2022/05/25 00:55:55;;;;;;;2.67;1.87;;;18.10;76.00;;;;;;4984119;28;20207;-75
2022/05/25 00:58:24;;;;;;;6.93;2.87;;;18.10;76.00;;;;;;4988001;28;20193;-76
2022/05/25 01:00:52;;;;;;;5.60;2.40;;;18.10;75.90;;;;;;4980779;28;20197;-77
2022/05/25 01:03:22;;;;;;;5.90;2.30;;;18.10;75.90;;;;;;4995383;28;20199;-75
2022/05/25 01:06:06;;;;;;;4.27;2.60;;;18.10;76.20;;;;;;4986540;28;20220;-77
2022/05/25 01:08:42;;;;;;;4.57;2.57;;;18.10;76.30;;;;;;4987169;28;20207;-76
2022/05/25 01:11:22;;;;;;;4.47;2.53;;;18.00;76.30;;;;;;4989328;28;20197;-75
2022/05/25 01:13:57;;;;;;;3.77;2.30;;;18.00;76.30;;;;;;4989330;28;20197;-77
2022/05/25 01:16:31;;;;;;;3.60;2.20;;;18.00;76.30;;;;;;4991581;28;20189;-76
2022/05/25 01:19:09;;;;;;;3.23;2.33;;;18.00;76.30;;;;;;4989503;28;20198;-77
2022/05/25 01:21:49;;;;;;;4.43;2.33;;;18.00;76.30;;;;;;4984806;28;20193;-76
2022/05/25 01:24:27;;;;;;;3.83;1.80;;;17.90;76.30;;;;;;4986855;28;20200;-77
2022/05/25 01:27:24;;;;;;;6.40;2.53;;;17.90;76.40;;;;;;4990450;28;20193;-77
2022/05/25 01:30:06;;;;;;;4.87;2.70;;;17.90;76.70;;;;;;4987987;28;20205;-76
2022/05/25 01:32:44;;;;;;;5.67;2.67;;;17.90;76.80;;;;;;4988200;28;20201;-76
2022/05/25 01:35:22;;;;;;;3.83;2.17;;;17.80;77.20;;;;;;4981848;28;20189;-77
2022/05/25 01:37:56;;;;;;;3.67;2.17;;;17.80;77.10;;;;;;4992408;28;20193;-76
2022/05/25 01:40:31;;;;;;;5.47;2.50;;;17.70;77.30;;;;;;4986025;28;20736;-76
2022/05/25 01:43:05;;;;;;;5.07;2.13;;;17.80;77.50;;;;;;4987649;28;20197;-76
2022/05/25 01:45:40;;;;;;;4.90;2.67;;;17.70;77.70;;;;;;4986745;28;20208;-75
2022/05/25 01:48:11;;;;;;;5.17;2.30;;;17.70;77.60;;;;;;4981030;28;20232;-77
2022/05/25 01:50:44;;;;;;;4.13;2.37;;;17.70;77.70;;;;;;4986027;28;20196;-77
2022/05/25 01:53:16;;;;;;;5.20;2.50;;;17.70;77.90;;;;;;4981584;28;20193;-77
2022/05/25 01:55:49;;;;;;;8.17;2.30;;;17.70;78.00;;;;;;4983140;28;20185;-75
2022/05/25 01:58:20;;;;;;;9.03;2.60;;;17.60;78.20;;;;;;4978370;28;20687;-75
2022/05/25 02:00:52;;;;;;;3.00;2.20;;;17.60;78.20;;;;;;4984575;28;20197;-76
2022/05/25 02:06:26;;;;;;;6.77;2.30;;;17.60;78.20;;;;;;4985477;28;20201;-76
2022/05/25 02:09:09;;;;;;;4.37;2.47;;;17.60;78.20;;;;;;4982259;28;20830;-76
2022/05/25 02:11:40;;;;;;;3.97;2.10;;;17.60;78.20;;;;;;4989716;28;20229;-77
2022/05/25 02:14:32;;;;;;;4.80;2.23;;;17.60;78.10;;;;;;4991620;28;20897;-76
2022/05/25 02:17:25;;;;;;;4.23;2.23;;;17.60;77.90;;;;;;4985818;28;20196;-76
2022/05/25 02:19:59;;;;;;;3.33;2.27;;;17.50;77.90;;;;;;4981730;28;20197;-76
2022/05/25 02:22:32;;;;;;;2.83;2.17;;;17.60;77.90;;;;;;4990491;28;20197;-76
2022/05/25 02:25:08;;;;;;;3.33;2.40;;;17.60;77.80;;;;;;4983154;28;20197;-76
2022/05/25 02:27:41;;;;;;;4.93;2.33;;;17.50;77.70;;;;;;4981393;28;20196;-76
2022/05/25 02:30:14;;;;;;;4.10;2.37;;;17.50;77.90;;;;;;4982562;28;20867;-76
2022/05/25 02:32:49;;;;;;;5.10;2.27;;;17.50;77.90;;;;;;4985123;28;20193;-76
2022/05/25 02:35:21;;;;;;;4.13;2.67;;;17.50;78.20;;;;;;4979207;28;20197;-76
2022/05/25 02:37:50;;;;;;;3.37;2.20;;;17.50;78.10;;;;;;4980866;28;20196;-76
2022/05/25 02:40:19;;;;;;;4.67;2.20;;;17.50;78.00;;;;;;4980986;28;20220;-76
2022/05/25 02:42:47;;;;;;;6.73;2.90;;;17.50;78.30;;;;;;4989518;28;20207;-76
2022/05/25 02:45:16;;;;;;;5.60;3.10;;;17.50;78.50;;;;;;4988354;28;20752;-75
2022/05/25 02:47:46;;;;;;;4.03;2.60;;;17.50;78.90;;;;;;4990011;28;20235;-76
2022/05/25 02:50:14;;;;;;;3.90;2.40;;;17.50;78.90;;;;;;4985611;28;20208;-75
2022/05/25 02:52:43;;;;;;;4.20;2.40;;;17.40;79.20;;;;;;4979807;28;20208;-76
2022/05/25 02:55:11;;;;;;;4.60;2.63;;;17.40;79.10;;;;;;4981104;28;20201;-75
2022/05/25 02:57:40;;;;;;;4.70;2.23;;;17.40;79.40;;;;;;4979670;28;20204;-76
2022/05/25 03:00:10;;;;;;;4.07;2.70;;;17.40;79.50;;;;;;4987673;28;20201;-76
2022/05/25 03:02:38;;;;;;;8.40;2.97;;;17.30;79.50;;;;;;4986823;28;20205;-76
2022/05/25 03:05:11;;;;;;;5.23;2.67;;;17.40;79.90;;;;;;4986816;28;20189;-76
2022/05/25 03:07:40;;;;;;;4.33;2.27;;;17.40;79.80;;;;;;4985404;28;20233;-75
2022/05/25 03:10:10;;;;;;;4.93;2.53;;;17.40;79.70;;;;;;4983307;28;20204;-76
2022/05/25 03:12:38;;;;;;;6.47;3.00;;;17.40;79.80;;;;;;4982322;28;20193;-76
2022/05/25 03:15:07;;;;;;;5.10;3.00;;;17.40;79.80;;;;;;4987040;28;20216;-75
2022/05/25 03:17:36;;;;;;;3.40;2.33;;;17.40;79.80;;;;;;4987324;28;20204;-76
2022/05/25 03:20:04;;;;;;;15.50;3.50;;;17.40;79.90;;;;;;4985154;28;20196;-76
2022/05/25 03:22:37;;;;;;;3.23;2.23;;;17.40;80.30;;;;;;4985097;28;20710;-75
2022/05/25 03:25:07;;;;;;;4.60;2.40;;;17.40;80.20;;;;;;4977973;28;20189;-75
2022/05/25 03:27:35;;;;;;;5.40;2.60;;;17.40;80.10;;;;;;4977701;28;20907;-75
2022/05/25 03:30:04;;;;;;;8.93;3.33;;;17.50;80.50;;;;;;4983855;28;20643;-75
2022/05/25 03:32:33;;;;;;;5.53;2.83;;;17.40;80.40;;;;;;4988130;28;20213;-76
2022/05/25 03:35:02;;;;;;;4.57;3.13;;;17.50;80.40;;;;;;4984083;28;20193;-75
2022/05/25 03:37:30;;;;;;;7.77;3.17;;;17.50;80.80;;;;;;4984881;28;20205;-76
2022/05/25 03:40:00;;;;;;;4.80;2.57;;;17.50;80.70;;;;;;4983792;28;20197;-76
2022/05/25 03:42:28;;;;;;;8.00;3.40;;;17.50;80.50;;;;;;4984440;28;20205;-75
2022/05/25 03:44:57;;;;;;;4.00;2.90;;;17.50;80.70;;;;;;4982264;28;20220;-75
2022/05/25 03:47:25;;;;;;;4.60;2.80;;;17.50;80.50;;;;;;4985456;28;20235;-76
2022/05/25 03:49:53;;;;;;;7.00;2.90;;;17.60;80.70;;;;;;4991285;28;20193;-76
2022/05/25 03:52:22;;;;;;;4.07;2.70;;;17.60;80.90;;;;;;4983968;28;20205;-77
2022/05/25 03:54:51;;;;;;;4.83;2.83;;;17.60;80.80;;;;;;4988147;28;20196;-76
2022/05/25 03:57:21;;;;;;;6.10;2.70;;;17.60;80.90;;;;;;4986138;28;20185;-77
2022/05/25 03:59:49;;;;;;;7.73;2.70;;;17.60;80.80;;;;;;4984956;28;20204;-74
2022/05/25 04:02:18;;;;;;;4.77;3.03;;;17.70;80.70;;;;;;4987800;28;20842;-75
2022/05/25 04:04:47;;;;;;;4.93;3.10;;;17.70;80.60;;;;;;4981412;28;20205;-74
2022/05/25 04:07:15;;;;;;;9.47;2.90;;;17.70;80.70;;;;;;4987220;28;20272;-76
2022/05/25 04:09:44;;;;;;;5.57;3.10;;;17.70;80.70;;;;;;4985301;28;20686;-75
2022/05/25 04:12:12;;;;;;;4.47;2.80;;;17.80;80.60;;;;;;4992327;28;20228;-75
2022/05/25 04:14:42;;;;;;;8.43;3.60;;;17.80;80.50;;;;;;4988281;28;20687;-77
2022/05/25 04:17:10;;;;;;;5.70;3.33;;;17.80;80.50;;;;;;4985463;28;20198;-75
2022/05/25 04:19:39;;;;;;;4.50;3.00;;;17.90;80.50;;;;;;4984552;28;20197;-76
2022/05/25 04:22:07;;;;;;;6.97;3.50;;;17.90;80.50;;;;;;4986084;28;20201;-77
2022/05/25 04:24:35;;;;;;;8.53;3.40;;;17.90;80.50;;;;;;4985917;28;20212;-76
2022/05/25 04:27:09;;;;;;;8.20;3.20;;;17.90;80.50;;;;;;4980642;28;20319;-75
2022/05/25 04:29:38;;;;;;;6.40;3.00;;;18.00;80.50;;;;;;4981581;28;20205;-79
2022/05/25 04:32:08;;;;;;;4.50;3.10;;;18.10;80.60;;;;;;4987621;28;20211;-75
2022/05/25 04:34:37;;;;;;;6.53;3.10;;;18.10;80.60;;;;;;4984222;28;20216;-75
2022/05/25 04:39:51;;;;;;;4.10;2.77;;;18.10;80.70;;;;;;4994935;28;20201;-76
2022/05/25 04:42:19;;;;;;;5.30;3.57;;;18.20;80.60;;;;;;4988360;28;20201;-75
2022/05/25 04:44:48;;;;;;;6.43;3.03;;;18.20;80.60;;;;;;4988774;28;20193;-75
2022/05/25 04:47:17;;;;;;;5.13;3.30;;;18.30;80.70;;;;;;4986707;28;20887;-75
2022/05/25 04:49:46;;;;;;;5.33;2.83;;;18.30;80.50;;;;;;4983578;28;20198;-77
2022/05/25 04:52:15;;;;;;;4.87;3.20;;;18.40;80.50;;;;;;4978229;28;20937;-77
2022/05/25 04:54:46;;;;;;;7.60;3.03;;;18.40;80.30;;;;;;4978786;28;20236;-76
2022/05/25 04:57:23;;;;;;;4.87;2.77;;;18.50;80.20;;;;;;4981661;28;20197;-75
2022/05/25 04:59:53;;;;;;;6.50;3.30;;;18.50;80.40;;;;;;4978570;28;20196;-76
2022/05/25 05:02:23;;;;;;;7.47;3.23;;;18.50;80.20;;;;;;4978735;28;20609;-76
2022/05/25 05:04:51;;;;;;;5.63;3.00;;;18.60;80.20;;;;;;4978352;28;20193;-76
2022/05/25 05:07:19;;;;;;;7.53;3.03;;;18.60;80.00;;;;;;4979006;28;20267;-78
2022/05/25 05:09:48;;;;;;;5.77;3.60;;;18.70;80.00;;;;;;4979404;28;20225;-78
2022/05/25 05:12:17;;;;;;;5.30;3.07;;;18.70;80.00;;;;;;4979351;28;20205;-77
2022/05/25 05:14:46;;;;;;;4.50;2.97;;;18.80;80.00;;;;;;4978676;28;20197;-77
2022/05/25 05:17:14;;;;;;;5.90;3.17;;;18.80;79.80;;;;;;4975162;28;20198;-77
2022/05/25 05:19:44;;;;;;;6.20;2.90;;;18.90;79.80;;;;;;4974084;28;20714;-77
2022/05/25 05:22:13;;;;;;;6.07;3.00;;;18.90;79.80;;;;;;4978597;28;20196;-75
2022/05/25 05:24:41;;;;;;;4.30;2.80;;;19.00;79.90;;;;;;4981584;28;20818;-75
2022/05/25 05:27:10;;;;;;;3.87;2.50;;;19.00;79.80;;;;;;4976093;28;20213;-75
2022/05/25 05:29:38;;;;;;;3.17;2.33;;;19.10;79.80;;;;;;4974180;28;20372;-76
2022/05/25 05:32:10;;;;;;;4.40;2.80;;;19.20;79.80;;;;;;4978814;28;20208;-76
2022/05/25 05:34:38;;;;;;;8.00;3.10;;;19.20;79.70;;;;;;4971380;28;20198;-77
2022/05/25 05:37:13;;;;;;;4.83;3.17;;;19.30;79.60;;;;;;4972322;28;20528;-77
2022/05/25 05:39:48;;;;;;;4.33;3.10;;;19.50;80.40;;;;;;4984555;28;20600;-76
2022/05/25 05:42:19;;;;;;;5.07;2.70;;;19.50;80.00;;;;;;4977804;28;20205;-76
2022/05/25 05:44:50;;;;;;;5.90;3.60;;;19.50;79.80;;;;;;4985533;28;20718;-76
2022/05/25 05:47:23;;;;;;;6.43;3.43;;;19.60;79.60;;;;;;4983713;28;20233;-75
2022/05/25 05:49:52;;;;;;;4.73;3.13;;;19.70;79.50;;;;;;4987155;28;20200;-76
2022/05/25 05:52:28;;;;;;;7.87;4.10;;;19.70;79.30;;;;;;4984219;28;20196;-76
2022/05/25 05:54:57;;;;;;;4.73;3.40;;;19.80;79.00;;;;;;4984159;28;20746;-77
2022/05/25 05:57:26;;;;;;;7.77;3.93;;;19.80;78.80;;;;;;4984073;28;20189;-75
2022/05/25 05:59:54;;;;;;;8.20;3.70;;;19.90;78.80;;;;;;4986095;28;20212;-76
2022/05/25 06:02:23;;;;;;;5.30;3.27;;;19.90;78.70;;;;;;4982572;28;20201;-75
2022/05/25 06:04:51;;;;;;;7.70;3.70;;;20.00;78.60;;;;;;4985013;28;20197;-76
2022/05/25 06:07:19;;;;;;;6.83;3.50;;;20.10;78.60;;;;;;4989942;28;20894;-75
2022/05/25 06:09:49;;;;;;;7.28;3.90;;;20.20;78.60;;;;;;4974897;28;20429;-76
2022/05/25 06:12:18;;;;;;;7.57;3.80;;;20.30;78.60;;;;;;4976138;28;20211;-76
2022/05/25 06:14:47;;;;;;;6.30;3.43;;;20.40;78.50;;;;;;4982245;28;20227;-77
2022/05/25 06:20:01;;;;;;;5.63;3.70;;;20.50;78.30;;;;;;4984736;28;20200;-76
2022/05/25 06:22:32;;;;;;;9.47;4.43;;;20.60;78.10;;;;;;4984616;28;20193;-76
2022/05/25 06:25:02;;;;;;;6.43;4.40;;;20.70;77.90;;;;;;4981938;28;20640;-75
2022/05/25 06:27:31;;;;;;;9.90;4.40;;;20.70;77.70;;;;;;4979694;28;20213;-78
2022/05/25 06:29:59;;;;;;;11.80;4.90;;;20.80;77.50;;;;;;4983808;28;20568;-76
2022/05/25 06:32:27;;;;;;;8.03;4.53;;;20.80;77.20;;;;;;4981850;28;20199;-76
2022/05/25 06:34:56;;;;;;;7.30;4.20;;;20.90;77.10;;;;;;4982144;28;20205;-78
2022/05/25 06:37:26;;;;;;;8.70;4.43;;;20.90;76.90;;;;;;4979257;28;20200;-78
2022/05/25 06:39:54;;;;;;;9.57;4.30;;;21.00;76.90;;;;;;4984335;28;20197;-76
2022/05/25 06:42:24;;;;;;;6.67;4.63;;;21.10;76.80;;;;;;4985244;28;20205;-76
2022/05/25 06:44:52;;;;;;;11.50;4.80;;;21.20;76.60;;;;;;4977394;28;20208;-77
2022/05/25 06:47:21;;;;;;;9.67;5.00;;;21.20;76.40;;;;;;4991402;28;20657;-77
2022/05/25 06:49:53;;;;;;;13.23;4.67;;;21.30;76.40;;;;;;5004884;28;20208;-76
2022/05/25 06:52:22;;;;;;;9.70;5.47;;;21.40;76.20;;;;;;4989345;28;20602;-78
2022/05/25 06:54:53;;;;;;;13.73;5.33;;;21.50;76.10;;;;;;5004459;28;20207;-76
2022/05/25 06:57:22;;;;;;;11.17;4.70;;;21.50;75.80;;;;;;5003651;28;20197;-77
2022/05/25 06:59:52;;;;;;;8.48;5.00;;;21.60;75.60;;;;;;5000726;28;20199;-78
2022/05/25 07:02:21;;;;;;;10.25;5.50;;;21.70;75.30;;;;;;5004246;28;20200;-77
2022/05/25 07:04:49;;;;;;;7.93;5.18;;;21.70;75.00;;;;;;5005242;28;20204;-77
2022/05/25 07:07:18;;;;;;;7.43;5.25;;;21.70;74.50;;;;;;4998696;28;20686;-77
2022/05/25 07:09:46;;;;;;;9.40;5.20;;;21.80;74.70;;;;;;5002562;28;20200;-79
2022/05/25 07:12:15;;;;;;;8.75;4.80;;;21.90;74.70;;;;;;5003511;28;20227;-77
2022/05/25 07:14:43;;;;;;;7.72;4.47;;;22.00;74.90;;;;;;5003160;28;20210;-78
2022/05/25 07:17:13;;;;;;;13.45;5.88;;;22.00;74.90;;;;;;5003547;28;20603;-77
2022/05/25 07:19:41;;;;;;;8.70;5.20;;;22.10;74.60;;;;;;5002071;28;20224;-77
2022/05/25 07:22:10;;;;;;;14.40;6.00;;;22.10;74.10;;;;;;5003135;28;20581;-78
2022/05/25 07:24:46;;;;;;;10.00;4.88;;;22.20;74.30;;;;;;5005178;28;20258;-78
2022/05/25 07:27:14;;;;;;;7.90;5.38;;;22.20;74.00;;;;;;4993036;28;20201;-78
2022/05/25 07:29:43;;;;;;;6.43;5.07;;;22.30;73.40;;;;;;5000929;28;20223;-76
2022/05/25 07:32:14;;;;;;;10.70;5.72;;;22.30;73.50;;;;;;5005077;28;20200;-76
2022/05/25 07:34:47;;;;;;;9.82;6.15;;;22.40;73.60;;;;;;5008438;28;20859;-77
2022/05/25 07:37:21;;;;;;;12.85;5.40;;;22.40;73.60;;;;;;5005258;28;20196;-76
2022/05/25 07:39:53;;;;;;;11.07;5.32;;;22.50;73.50;;;;;;4997646;28;20272;-77
2022/05/25 07:42:23;;;;;;;9.73;5.40;;;22.60;73.40;;;;;;5007029;28;20192;-77
2022/05/25 07:44:58;;;;;;;9.95;4.80;;;22.70;73.10;;;;;;5007672;28;20204;-78
2022/05/25 07:47:30;;;;;;;8.25;4.60;;;22.70;73.00;;;;;;4996140;28;20232;-79
2022/05/25 07:49:59;;;;;;;10.93;4.75;;;22.80;73.10;;;;;;5005495;28;20279;-77
2022/05/25 07:52:31;;;;;;;9.88;4.60;;;22.80;73.20;;;;;;5006220;28;20215;-78
2022/05/25 07:55:00;;;;;;;14.45;4.43;;;23.00;73.20;;;;;;5005840;28;20194;-78
2022/05/25 07:57:28;;;;;;;12.63;5.25;;;23.00;72.90;;;;;;5005735;28;20710;-78
2022/05/25 07:59:56;;;;;;;7.25;4.95;;;23.10;73.00;;;;;;4997106;28;20884;-77
2022/05/25 08:08:07;;;;;;;8.55;4.53;;;23.30;72.30;;;;;;5001981;28;20555;-76
2022/05/25 08:10:36;;;;;;;11.77;4.38;;;23.30;72.20;;;;;;5002827;28;20216;-76
2022/05/25 08:13:05;;;;;;;7.15;4.40;;;23.40;71.90;;;;;;5002734;28;20207;-77
2022/05/25 08:15:34;;;;;;;8.32;4.15;;;23.40;72.00;;;;;;5005106;28;20196;-77
2022/05/25 08:18:04;;;;;;;10.05;5.25;;;23.40;72.00;;;;;;4999660;28;20201;-78
2022/05/25 08:20:32;;;;;;;11.30;4.95;;;23.50;71.80;;;;;;5002181;28;20200;-76
2022/05/25 08:23:03;;;;;;;11.77;4.35;;;23.60;71.50;;;;;;5002163;28;20542;-77
2022/05/25 08:25:32;;;;;;;8.15;5.15;;;23.70;71.50;;;;;;5006701;28;20200;-77
2022/05/25 08:28:00;;;;;;;10.68;4.88;;;23.70;71.50;;;;;;4998147;28;20268;-77
2022/05/25 08:30:29;;;;;;;12.20;4.20;;;23.80;72.20;;;;;;5002868;28;20196;-77
2022/05/25 08:32:57;;;;;;;8.48;4.53;;;23.90;71.30;;;;;;5002410;28;20650;-77
2022/05/25 08:35:27;;;;;;;7.03;3.75;;;23.90;70.80;;;;;;4996416;28;20212;-76
2022/05/25 08:37:57;;;;;;;8.32;4.63;;;24.00;70.80;;;;;;4997475;28;20203;-78
2022/05/25 08:40:31;;;;;;;10.82;4.18;;;24.00;70.60;;;;;;4999527;28;20207;-75
2022/05/25 08:43:02;;;;;;;6.57;3.25;;;24.10;70.40;;;;;;4993839;28;20185;-76
2022/05/25 08:45:36;;;;;;;6.00;3.35;;;24.10;69.90;;;;;;5002655;28;20650;-77
2022/05/25 08:48:07;;;;;;;5.80;3.70;;;24.20;70.00;;;;;;4991258;28;20235;-77
2022/05/25 08:50:42;;;;;;;9.65;3.67;;;24.30;70.00;;;;;;4985309;28;20197;-77
2022/05/25 08:53:14;;;;;;;10.10;3.80;;;24.30;69.80;;;;;;4992522;28;20988;-77
2022/05/25 08:55:59;;;;;;;5.63;3.20;;;24.40;69.60;;;;;;4991064;28;20204;-76
2022/05/25 08:58:38;;;;;;;6.68;2.70;;;24.50;69.30;;;;;;4985703;28;20223;-77
2022/05/25 09:01:09;;;;;;;5.88;3.28;;;24.50;69.20;;;;;;4982561;28;20194;-76
2022/05/25 09:03:49;;;;;;;4.50;3.08;;;24.50;69.20;;;;;;4978002;28;20205;-77
2022/05/25 09:06:33;;;;;;;9.70;4.15;;;24.60;69.10;;;;;;4995148;28;20228;-77
2022/05/25 09:09:05;;;;;;;7.18;3.33;;;24.70;68.10;;;;;;4990108;28;20193;-75
2022/05/25 09:11:41;;;;;;;8.20;3.15;;;24.70;68.30;;;;;;4986960;28;20259;-76
2022/05/25 09:14:15;;;;;;;6.20;3.15;;;24.80;68.30;;;;;;4986619;28;20280;-77
2022/05/25 09:16:47;;;;;;;5.38;3.28;;;24.90;68.40;;;;;;4979239;28;20197;-77
2022/05/25 09:19:18;;;;;;;8.27;3.67;;;25.00;68.50;;;;;;4992405;28;20205;-77
2022/05/25 09:21:53;;;;;;;8.95;3.65;;;25.00;67.30;;;;;;4990746;28;20193;-79
2022/05/25 09:24:28;;;;;;;5.30;3.58;;;25.00;67.30;;;;;;4983496;28;20581;-76
2022/05/25 09:26:59;;;;;;;10.63;3.28;;;25.10;67.00;;;;;;4980883;28;20206;-76
2022/05/25 09:29:27;;;;;;;7.55;3.08;;;25.20;66.10;;;;;;4993664;28;20190;-79
2022/05/25 09:31:59;;;;;;;6.40;3.42;;;25.20;66.30;;;;;;4984792;28;20201;-76
2022/05/25 09:34:37;;;;;;;5.80;3.25;;;25.30;66.40;;;;;;4983648;28;20194;-77
2022/05/25 09:37:15;;;;;;;4.90;3.47;;;25.30;66.40;;;;;;4993737;28;20204;-78
2022/05/25 09:39:46;;;;;;;7.85;3.58;;;25.40;66.00;;;;;;4992824;28;20219;-78
2022/05/25 09:42:18;;;;;;;9.18;3.58;;;25.40;65.70;;;;;;4985293;28;20201;-80
2022/05/25 09:44:52;;;;;;;7.78;3.05;;;25.50;65.80;;;;;;4982078;28;20192;-77
2022/05/25 09:47:25;;;;;;;9.07;2.85;;;25.60;65.70;;;;;;4989823;28;20279;-78
2022/05/25 09:49:57;;;;;;;5.30;2.78;;;25.60;65.20;;;;;;4994122;28;20208;-78
2022/05/25 09:52:39;;;;;;;10.82;2.83;;;25.70;65.20;;;;;;4982583;28;20205;-78
2022/05/25 09:55:15;;;;;;;4.97;2.70;;;25.80;65.00;;;;;;4987529;28;20212;-79
2022/05/25 09:57:51;;;;;;;5.10;2.53;;;25.90;64.50;;;;;;4989183;28;20196;-78
2022/05/25 10:00:23;;;;;;;5.40;2.40;;;25.90;64.40;;;;;;4990253;28;20211;-79
2022/05/25 10:03:00;;;;;;;6.63;2.92;;;26.00;63.50;;;;;;4997003;28;20196;-78
2022/05/25 10:05:32;;;;;;;5.53;2.22;;;26.10;63.90;;;;;;4989152;28;20895;-77
2022/05/25 10:08:16;;;;;;;4.05;2.53;;;26.20;63.90;;;;;;4988584;28;20199;-79
2022/05/25 10:10:50;;;;;;;6.82;2.58;;;26.30;63.40;;;;;;4974794;28;20284;-79
2022/05/25 10:13:23;;;;;;;6.03;2.38;;;26.40;63.50;;;;;;4967595;28;20200;-77
2022/05/25 10:15:52;;;;;;;6.15;3.08;;;26.50;62.70;;;;;;4985138;28;20237;-76
2022/05/25 10:18:35;;;;;;;5.70;2.60;;;26.50;62.80;;;;;;4985937;28;20204;-78
2022/05/25 10:21:07;;;;;;;4.88;2.28;;;26.60;61.70;;;;;;4983945;28;20209;-78
2022/05/25 10:23:42;;;;;;;11.23;3.60;;;26.70;61.60;;;;;;4987813;28;20203;-78
2022/05/25 10:26:13;;;;;;;6.65;2.90;;;26.70;60.40;;;;;;4982347;28;20232;-77
2022/05/25 10:28:47;;;;;;;5.43;2.25;;;26.80;60.10;;;;;;4983504;28;20783;-78
2022/05/25 10:37:15;;;;;;;6.07;3.00;;;26.90;59.20;;;;;;4970786;28;20201;-80
2022/05/25 10:39:48;;;;;;;6.63;1.92;;;27.00;58.70;;;;;;4977173;28;20213;-77
2022/05/25 10:42:21;;;;;;;13.38;2.78;;;27.10;59.10;;;;;;4980347;28;20799;-77
2022/05/25 10:45:02;;;;;;;4.80;2.85;;;27.10;58.80;;;;;;4980401;28;20280;-78
2022/05/25 10:47:46;;;;;;;5.70;2.65;;;27.10;58.60;;;;;;4986231;28;20239;-77
2022/05/25 10:50:21;;;;;;;5.43;2.45;;;27.20;58.60;;;;;;4984193;28;20200;-78
2022/05/25 10:52:52;;;;;;;8.73;2.28;;;27.30;58.40;;;;;;4988119;28;20199;-78
2022/05/25 10:55:28;;;;;;;7.75;2.25;;;27.40;57.80;;;;;;4985916;28;20197;-76
2022/05/25 10:58:19;;;;;;;3.95;2.30;;;27.40;58.10;;;;;;4984113;28;20761;-77
2022/05/25 11:00:57;;;;;;;5.40;2.50;;;27.50;58.30;;;;;;4985780;28;20209;-77
2022/05/25 11:03:53;;;;;;;5.07;2.30;;;27.60;58.60;;;;;;4981327;28;20836;-79
2022/05/25 11:06:48;;;;;;;9.57;2.50;;;27.70;58.70;;;;;;4990180;28;20442;-80
2022/05/25 11:09:37;;;;;;;6.55;2.30;;;27.80;57.40;;;;;;4983504;28;20284;-80
2022/05/25 11:12:20;;;;;;;10.30;2.53;;;27.80;57.80;;;;;;4984231;28;20731;-79
2022/05/25 11:15:01;;;;;;;3.33;2.35;;;27.80;57.70;;;;;;4989483;28;20223;-81
2022/05/25 11:17:40;;;;;;;3.88;2.30;;;27.90;57.60;;;;;;4979567;28;20196;-78
2022/05/25 11:20:21;;;;;;;5.82;2.78;;;27.90;57.30;;;;;;4973481;28;20220;-77
2022/05/25 11:23:10;;;;;;;3.83;2.20;;;28.00;57.30;;;;;;4979392;28;20197;-79
2022/05/25 11:25:52;;;;;;;3.22;2.10;;;28.00;57.20;;;;;;4991309;28;20196;-81
2022/05/25 11:28:35;;;;;;;4.82;2.72;;;28.10;56.80;;;;;;4984063;28;20201;-78
2022/05/25 11:31:17;;;;;;;3.17;2.20;;;28.10;56.50;;;;;;4986179;28;20240;-79
2022/05/25 11:34:16;;;;;;;4.57;2.13;;;28.10;56.90;;;;;;4987490;28;20204;-78
2022/05/25 11:37:21;;;;;;;4.05;2.10;;;28.10;56.20;;;;;;4979770;28;20202;-79
2022/05/25 11:40:01;;;;;;;5.15;2.28;;;28.10;56.20;;;;;;4982842;28;20193;-82
2022/05/25 11:42:48;;;;;;;10.20;2.40;;;28.20;56.40;;;;;;4986625;28;20204;-80
2022/05/25 11:45:30;;;;;;;6.75;2.08;;;28.20;55.80;;;;;;4985276;28;20236;-78
2022/05/25 11:48:16;;;;;;;3.38;2.38;;;28.20;56.20;;;;;;4999858;28;20226;-80
2022/05/25 11:50:50;;;;;;;3.70;2.30;;;28.30;56.40;;;;;;5009638;28;20200;-80
2022/05/25 11:53:42;;;;;;;5.38;2.05;;;28.30;56.50;;;;;;5006188;28;20196;-78
2022/05/25 11:56:42;;;;;;;4.65;2.30;;;28.40;56.00;;;;;;4997193;28;20267;-77
2022/05/25 11:59:36;;;;;;;3.65;2.22;;;28.40;55.90;;;;;;4998834;28;20193;-78
2022/05/25 12:02:19;;;;;;;5.28;2.05;;;28.50;56.10;;;;;;5006317;28;20212;-77
2022/05/25 12:05:03;;;;;;;4.25;2.25;;;28.60;56.40;;;;;;4998739;28;20844;-77
2022/05/25 12:07:42;;;;;;;3.25;2.13;;;28.60;56.30;;;;;;5001686;28;21135;-78
2022/05/25 12:10:23;;;;;;;3.45;2.17;;;28.70;56.40;;;;;;5003337;28;20908;-77
2022/05/25 12:12:59;;;;;;;3.95;2.20;;;28.80;56.60;;;;;;5006383;28;20866;-78
2022/05/25 12:15:32;;;;;;;6.28;2.92;;;28.80;56.70;;;;;;5000094;28;20199;-78
2022/05/25 12:18:18;;;;;;;6.05;2.53;;;29.00;56.80;;;;;;5005227;28;20193;-78
2022/05/25 12:20:53;;;;;;;5.50;2.28;;;29.10;56.40;;;;;;4997207;28;20224;-81
2022/05/25 12:23:27;;;;;;;3.42;1.92;;;29.10;56.20;;;;;;4998921;28;20195;-80
2022/05/25 12:26:02;;;;;;;13.60;3.53;;;29.20;56.20;;;;;;5004407;28;20281;-80
2022/05/25 12:28:35;;;;;;;4.22;2.33;;;29.30;56.30;;;;;;5006792;28;20200;-81
2022/05/25 12:31:08;;;;;;;9.13;2.17;;;29.40;56.30;;;;;;5000597;28;20196;-79
2022/05/25 12:33:39;;;;;;;6.60;2.65;;;29.40;55.20;;;;;;5002944;28;20196;-78
2022/05/25 12:36:10;;;;;;;7.13;2.13;;;29.50;55.50;;;;;;5001093;28;20200;-78
2022/05/25 12:38:40;;;;;;;3.20;1.92;;;29.50;55.50;;;;;;5002483;28;20254;-78
2022/05/25 12:41:36;;;;;;;3.35;2.10;;;29.60;55.90;;;;;;5008144;28;20216;-78
2022/05/25 12:49:49;;;;;;;3.70;2.25;;;29.80;55.40;;;;;;5006971;28;20255;-77
2022/05/25 12:52:49;;;;;;;5.07;2.58;;;29.90;55.30;;;;;;5002550;28;20189;-78
2022/05/25 12:55:27;;;;;;;5.90;2.63;;;29.90;54.60;;;;;;5003923;28;20702;-77
2022/05/25 12:57:57;;;;;;;3.88;2.05;;;29.90;53.70;;;;;;5003105;28;20223;-78
2022/05/25 13:00:43;;;;;;;9.18;2.30;;;29.90;53.70;;;;;;5006876;28;20207;-81
2022/05/25 13:03:33;;;;;;;4.22;2.15;;;29.90;53.50;;;;;;4998467;28;20204;-79
2022/05/25 13:06:05;;;;;;;5.30;2.20;;;29.80;53.20;;;;;;5001925;28;20572;-78
2022/05/25 13:09:03;;;;;;;4.45;2.28;;;29.80;53.70;;;;;;5003231;28;20973;-79
2022/05/25 13:11:35;;;;;;;5.43;2.50;;;29.80;54.10;;;;;;4953978;28;20200;-81
2022/05/25 13:14:06;;;;;;;6.70;2.40;;;29.90;54.00;;;;;;5001930;28;20204;-80
2022/05/25 13:16:56;;;;;;;2.97;2.28;;;29.90;53.60;;;;;;5009110;28;20295;-82
2022/05/25 13:19:47;;;;;;;5.82;2.28;;;29.90;53.90;;;;;;4998606;28;20831;-80
2022/05/25 13:22:27;;;;;;;3.42;2.33;;;30.10;54.10;;;;;;5006709;28;20240;-81
2022/05/25 13:25:09;;;;;;;4.90;2.30;;;30.40;53.70;;;;;;5003514;28;20200;-78
2022/05/25 13:27:56;;;;;;;3.95;2.33;;;30.50;53.50;;;;;;5001159;28;20204;-77
2022/05/25 13:30:32;;;;;;;4.05;2.35;;;30.60;53.20;;;;;;4993153;28;20188;-78
2022/05/25 13:33:03;;;;;;;7.70;2.35;;;30.70;52.60;;;;;;4989592;28;20689;-78
2022/05/25 13:35:41;;;;;;;4.35;2.45;;;30.80;52.80;;;;;;4994835;28;20205;-78
2022/05/25 13:38:23;;;;;;;5.78;2.63;;;30.90;53.00;;;;;;4997368;28;20196;-78
2022/05/25 13:40:57;;;;;;;5.32;2.72;;;30.90;52.90;;;;;;5004498;28;20196;-78
2022/05/25 13:43:38;;;;;;;5.70;2.80;;;30.90;52.80;;;;;;5000459;28;20200;-78
2022/05/25 13:46:09;;;;;;;9.07;2.95;;;30.90;52.00;;;;;;5000696;28;20184;-79